Pilot Station, Alaska
Current Conditions -  °F | °C
As of 2:56 PM on Monday 20 Oct 2014 (Local Time) from PASM Reporting Station
Overcast Overcast  
Wind Chill: 17°   Ceiling: 1700
Heat Index: 28°   Visibility: 10mi
Dew Point: 21°   Wind: 16mph
Humidity: 74%   Direction: 10°N
Pressure: 29.22"   Gusts: 22mph
Location:  61.94°N, 162.88°W
Report Text: PASM 202256Z AUTO 01014G19KT 10SM OVC017 M02/M06 A2922 RMK AO1
Loading
Personal Weather Stations






























Interactive Weather Map New forecast layout! Learn more

10-Day Weather Forecast

Advertisements
Track Severe Weather on mobile